This is the latest recevied weather packets stored in our database for station/object DL1GHN-6. If no packets are shown the sender has not sent any weather packets the latest 10 day(s).
| Time | Temp. | Humidity | Pressure | Rain* | Wind** | Luminosity | Snow |
|---|---|---|---|---|---|---|---|
| 1777528380 | 8.33° C | 59% | 1023.8 hPa | 0 mm | - | 42 W/m² | - |
| 1777528080 | 7.78° C | 62% | 1023.8 hPa | 0 mm | - | 30 W/m² | - |
| 1777527781 | 7.22° C | 63% | 1023.8 hPa | 0 mm | - | 118 W/m² | - |
| 1777527481 | 6.67° C | 65% | 1023.8 hPa | 0 mm | - | 62 W/m² | - |
| 1777527181 | 6.67° C | 65% | 1023.7 hPa | 0 mm | - | 100 W/m² | - |
| 1777526881 | 6.11° C | 66% | 1023.6 hPa | 0 mm | - | 58 W/m² | - |
| 1777526580 | 6.11° C | 65% | 1023.6 hPa | 0 mm | - | 70 W/m² | - |
| 1777526281 | 5.56° C | 66% | 1023.6 hPa | 0 mm | - | 33 W/m² | - |
| 1777525982 | 5.56° C | 64% | 1023.4 hPa | 0 mm | - | 37 W/m² | - |
| 1777525680 | 5.56° C | 62% | 1023.4 hPa | 0 mm | - | 25 W/m² | - |
| 1777525382 | 5.56° C | 62% | 1023.3 hPa | 0 mm | - | 14 W/m² | - |
| 1777525082 | 6.11° C | 61% | 1023.3 hPa | 0 mm | - | 14 W/m² | - |
| 1777524781 | 6.67° C | 59% | 1023.3 hPa | 0 mm | - | 12 W/m² | - |
| 1777524482 | 6.67° C | 58% | 1023.3 hPa | 0 mm | - | 11 W/m² | - |
| 1777524181 | 7.22° C | 56% | 1023.2 hPa | 0 mm | - | 11 W/m² | - |
| 1777523882 | 7.22° C | 56% | 1023.1 hPa | 0 mm | - | 9 W/m² | - |
| 1777523581 | 7.78° C | 53% | 1023.1 hPa | 0 mm | - | 7 W/m² | - |
| 1777523281 | 8.33° C | 51% | 1023.1 hPa | 0 mm | - | 7 W/m² | - |
| 1777522982 | 8.89° C | 50% | 1023 hPa | 0 mm | - | 5 W/m² | - |
| 1777522680 | 8.89° C | 49% | 1023 hPa | 0 mm | - | 0 W/m² | - |
| 1777522380 | 9.44° C | 46% | 1023 hPa | 0 mm | - | 0 W/m² | - |
| 1777522081 | 9.44° C | 45% | 1023 hPa | 0 mm | - | 0 W/m² | - |
| 1777521781 | 9.44° C | 44% | 1023 hPa | 0 mm | - | 0 W/m² | - |
| 1777521480 | 9.44° C | 43% | 1022.9 hPa | 0 mm | - | 0 W/m² | - |
| 1777521181 | 9.44° C | 43% | 1023 hPa | 0 mm | - | 0 W/m² | - |
* Rain latest hour (hover to see other rain measurements)
** Current wind speed in m/s (hover to see current wind gust speed)